Time;durP1;ratioP1;P1;durP2;ratioP2;P2;SDS_P1;SDS_P2;PMS_P1;PMS_P2;Temp;Humidity;BMP_temperature;BMP_pressure;BME280_temperature;BME280_humidity;BME280_pressure;Samples;Min_cycle;Max_cycle;Signal;HPM_P1;HPM_P2
2023/06/09 00:01:22;;;;;;;15.30;4.97;;;12.70;99.90;;;;;;5026179;28;20056;-72
2023/06/09 00:03:52;;;;;;;14.60;5.07;;;12.70;99.90;;;;;;5026956;28;20064;-73
2023/06/09 00:06:37;;;;;;;14.68;6.28;;;12.80;99.90;;;;;;5021101;28;20511;-74
2023/06/09 00:09:23;;;;;;;12.23;4.68;;;12.70;99.90;;;;;;5027110;28;20064;-74
2023/06/09 00:12:00;;;;;;;13.23;5.15;;;12.70;99.90;;;;;;5058832;28;20048;-73
2023/06/09 00:14:56;;;;;;;12.10;5.63;;;12.70;99.90;;;;;;5027825;28;20455;-73
2023/06/09 00:17:29;;;;;;;10.07;5.03;;;12.70;99.90;;;;;;5027215;28;20400;-73
2023/06/09 00:20:09;;;;;;;14.93;5.32;;;12.70;99.90;;;;;;5020047;28;20060;-74
2023/06/09 00:22:45;;;;;;;12.32;5.55;;;12.60;99.90;;;;;;5026637;28;20052;-73
2023/06/09 00:25:24;;;;;;;20.33;5.68;;;12.70;99.90;;;;;;5013589;28;20053;-73
2023/06/09 00:28:11;;;;;;;12.27;5.45;;;12.60;99.90;;;;;;5013208;28;20136;-73
2023/06/09 00:30:41;;;;;;;13.63;5.25;;;12.60;99.90;;;;;;5035662;28;20049;-73
2023/06/09 00:33:18;;;;;;;15.85;5.03;;;11.90;99.90;;;;;;4961515;28;20069;-74
2023/06/09 00:36:04;;;;;;;13.50;5.22;;;12.60;99.90;;;;;;4970058;28;20600;-75
2023/06/09 00:38:35;;;;;;;16.25;5.97;;;12.60;99.90;;;;;;4992205;28;20048;-73
2023/06/09 00:41:10;;;;;;;12.45;5.63;;;12.60;99.90;;;;;;4991991;28;20070;-73
2023/06/09 00:43:40;;;;;;;13.57;5.60;;;12.60;99.90;;;;;;4977907;28;20518;-74
2023/06/09 00:46:16;;;;;;;13.40;5.85;;;12.60;99.90;;;;;;4977354;28;20521;-73
2023/06/09 00:48:52;;;;;;;15.35;5.60;;;12.30;99.90;;;;;;4977349;28;20612;-73
2023/06/09 00:51:29;;;;;;;14.45;5.50;;;12.50;99.90;;;;;;4992566;28;20059;-74
2023/06/09 00:53:57;;;;;;;18.60;5.68;;;12.50;99.90;;;;;;4967579;28;20124;-74
2023/06/09 00:56:29;;;;;;;12.57;5.95;;;12.50;99.90;;;;;;4961513;28;20058;-74
2023/06/09 00:59:06;;;;;;;14.48;5.75;;;12.50;99.90;;;;;;4960185;28;20136;-74
2023/06/09 01:01:37;;;;;;;15.00;5.93;;;12.50;99.90;;;;;;4977833;28;20054;-74
2023/06/09 01:04:06;;;;;;;13.57;5.70;;;12.50;99.90;;;;;;4995938;28;20482;-74
2023/06/09 01:07:12;;;;;;;14.30;5.60;;;12.50;99.90;;;;;;5040829;28;20100;-74
2023/06/09 01:10:08;;;;;;;12.00;5.45;;;12.40;99.90;;;;;;5027745;28;20427;-74
2023/06/09 01:13:03;;;;;;;14.48;6.00;;;12.50;99.90;;;;;;5026455;28;20075;-74
2023/06/09 01:15:36;;;;;;;15.98;6.63;;;12.50;99.90;;;;;;5041452;28;20034;-74
2023/06/09 01:18:15;;;;;;;13.73;5.88;;;12.40;99.90;;;;;;5027087;28;20041;-74
2023/06/09 01:21:01;;;;;;;17.20;6.60;;;12.40;99.90;;;;;;5026769;28;20053;-74
2023/06/09 01:24:00;;;;;;;18.17;7.20;;;12.40;99.90;;;;;;5021634;28;20404;-74
2023/06/09 01:26:29;;;;;;;19.77;6.85;;;12.40;99.90;;;;;;5034848;28;20056;-73
2023/06/09 01:29:13;;;;;;;18.45;6.95;;;12.40;99.90;;;;;;5026490;28;20192;-74
2023/06/09 01:31:46;;;;;;;21.52;6.82;;;12.50;99.90;;;;;;5018930;28;20046;-74
2023/06/09 01:34:29;;;;;;;16.48;6.90;;;12.40;99.90;;;;;;5024584;28;20575;-73
2023/06/09 01:37:13;;;;;;;14.15;6.72;;;12.40;99.90;;;;;;5018449;28;20119;-73
2023/06/09 01:39:41;;;;;;;19.25;7.05;;;12.40;99.90;;;;;;5026727;28;20050;-73
2023/06/09 01:42:09;;;;;;;16.45;7.03;;;12.30;99.90;;;;;;5009410;28;20064;-73
2023/06/09 01:44:55;;;;;;;13.98;6.88;;;12.40;99.90;;;;;;5027706;28;20121;-73
2023/06/09 01:47:27;;;;;;;17.85;6.90;;;12.30;99.90;;;;;;5025847;28;20076;-73
2023/06/09 01:50:04;;;;;;;13.90;7.05;;;12.30;99.90;;;;;;5011051;28;20060;-74
2023/06/09 01:52:52;;;;;;;12.95;7.22;;;12.30;99.90;;;;;;5027781;28;20407;-74
2023/06/09 01:55:43;;;;;;;17.45;7.38;;;12.30;99.90;;;;;;5007452;28;20060;-73
2023/06/09 01:58:30;;;;;;;15.57;7.30;;;12.30;99.90;;;;;;5028400;28;20065;-74
2023/06/09 02:01:01;;;;;;;16.80;8.50;;;12.30;99.90;;;;;;5022393;28;20132;-73
2023/06/09 02:03:44;;;;;;;18.00;8.20;;;12.20;99.90;;;;;;4997751;28;20048;-74
2023/06/09 02:06:27;;;;;;;14.25;7.55;;;12.30;99.90;;;;;;5030207;28;20431;-74
2023/06/09 02:08:58;;;;;;;23.17;8.15;;;12.30;99.90;;;;;;5022158;28;20054;-74
2023/06/09 02:11:29;;;;;;;16.20;7.63;;;12.30;99.90;;;;;;5030313;28;20582;-74
2023/06/09 02:13:55;;;;;;;17.00;7.03;;;12.30;99.90;;;;;;5012385;28;20053;-74
2023/06/09 02:16:25;;;;;;;17.08;7.00;;;12.30;99.90;;;;;;5030081;28;20042;-73
2023/06/09 02:18:57;;;;;;;21.38;7.68;;;12.30;99.90;;;;;;5030740;28;20061;-73
2023/06/09 02:21:38;;;;;;;13.13;6.65;;;11.60;99.90;;;;;;5015797;28;20056;-73
2023/06/09 02:24:15;;;;;;;18.95;7.22;;;11.20;99.90;;;;;;5030455;28;20398;-74
2023/06/09 02:26:52;;;;;;;14.87;7.07;;;12.30;99.90;;;;;;5028572;28;20054;-73
2023/06/09 02:29:19;;;;;;;21.13;7.07;;;12.20;99.90;;;;;;5029894;28;20045;-73
2023/06/09 02:32:03;;;;;;;16.27;6.90;;;12.20;99.90;;;;;;4993788;28;20132;-74
2023/06/09 02:34:37;;;;;;;13.65;6.47;;;12.20;99.90;;;;;;4971197;28;20420;-74
2023/06/09 02:37:07;;;;;;;15.35;6.57;;;12.20;99.90;;;;;;4975399;28;20049;-73
2023/06/09 02:39:39;;;;;;;17.88;7.03;;;12.20;99.90;;;;;;4976630;28;20096;-74
2023/06/09 02:42:13;;;;;;;17.08;6.60;;;12.20;99.90;;;;;;4960018;28;20634;-73
2023/06/09 02:44:43;;;;;;;15.25;6.47;;;12.20;99.90;;;;;;4990209;28;20062;-73
2023/06/09 02:47:13;;;;;;;17.55;6.68;;;12.20;99.90;;;;;;5007210;28;20707;-74
2023/06/09 02:49:38;;;;;;;18.15;6.28;;;12.20;99.90;;;;;;5024425;28;20061;-73
2023/06/09 02:52:12;;;;;;;15.95;6.47;;;12.20;99.90;;;;;;5007899;28;20132;-73
2023/06/09 02:54:40;;;;;;;11.85;6.50;;;12.20;99.90;;;;;;4967692;28;20424;-74
2023/06/09 02:57:09;;;;;;;17.10;6.40;;;12.20;99.90;;;;;;5021050;28;20127;-73
2023/06/09 02:59:39;;;;;;;13.23;6.65;;;12.20;99.90;;;;;;5006717;28;20057;-73
2023/06/09 03:02:15;;;;;;;9.35;5.03;;;12.20;99.90;;;;;;4980789;28;20104;-73
2023/06/09 03:04:45;;;;;;;13.52;5.65;;;12.20;99.90;;;;;;5028333;28;20053;-74
2023/06/09 03:07:17;;;;;;;17.27;6.05;;;12.20;99.90;;;;;;5027603;28;20057;-74
2023/06/09 03:09:52;;;;;;;15.43;6.68;;;12.20;99.90;;;;;;5013922;28;20056;-73
2023/06/09 03:12:27;;;;;;;14.43;5.53;;;12.10;99.90;;;;;;5027242;28;20053;-73
2023/06/09 03:14:59;;;;;;;13.00;5.65;;;12.20;99.90;;;;;;5019867;28;20423;-73
2023/06/09 03:17:42;;;;;;;15.50;6.22;;;12.10;99.90;;;;;;5041140;28;20095;-73
2023/06/09 03:20:19;;;;;;;15.18;5.53;;;12.10;99.90;;;;;;4997878;28;20084;-74
2023/06/09 03:22:54;;;;;;;18.15;6.43;;;12.20;99.90;;;;;;5045837;28;20060;-73
2023/06/09 03:25:25;;;;;;;21.02;6.85;;;12.10;99.90;;;;;;5006804;28;20096;-73
2023/06/09 03:27:58;;;;;;;15.27;6.30;;;12.20;99.90;;;;;;5019419;28;20065;-73
2023/06/09 03:30:28;;;;;;;14.18;6.50;;;12.10;99.90;;;;;;5022382;28;20108;-73
2023/06/09 03:33:01;;;;;;;15.10;6.53;;;12.20;99.90;;;;;;5006953;28;20085;-73
2023/06/09 03:35:34;;;;;;;15.05;6.72;;;12.20;99.90;;;;;;4975718;28;20072;-74
2023/06/09 03:38:03;;;;;;;14.60;6.40;;;12.20;99.90;;;;;;5004132;28;20420;-74
2023/06/09 03:40:29;;;;;;;15.82;6.07;;;12.20;99.90;;;;;;4974710;28;20065;-73
2023/06/09 03:42:58;;;;;;;18.02;6.75;;;12.20;99.90;;;;;;4989540;28;20093;-73
2023/06/09 03:45:36;;;;;;;16.38;6.78;;;12.20;99.90;;;;;;4991099;28;20096;-73
2023/06/09 03:48:06;;;;;;;14.73;5.82;;;12.20;99.90;;;;;;4973448;28;20128;-74
2023/06/09 03:50:32;;;;;;;17.80;6.20;;;12.20;99.90;;;;;;5007319;28;20455;-74
2023/06/09 03:53:01;;;;;;;20.85;7.10;;;12.20;99.90;;;;;;5004764;28;20596;-73
2023/06/09 03:55:31;;;;;;;20.33;6.80;;;12.20;99.90;;;;;;5006104;28;20061;-75
2023/06/09 03:58:01;;;;;;;17.90;6.60;;;12.30;99.90;;;;;;5006878;28;20085;-74
2023/06/09 04:00:32;;;;;;;16.70;6.00;;;12.30;99.90;;;;;;4989276;28;20440;-73
2023/06/09 04:03:03;;;;;;;15.48;6.60;;;12.30;99.90;;;;;;4994238;28;20496;-74
2023/06/09 04:05:30;;;;;;;21.90;7.30;;;12.30;99.90;;;;;;5027481;28;20053;-73
2023/06/09 04:08:12;;;;;;;19.52;7.00;;;12.30;99.90;;;;;;4986827;28;20054;-73
2023/06/09 04:10:50;;;;;;;18.73;8.25;;;12.30;99.90;;;;;;4972903;28;20073;-73
2023/06/09 04:13:15;;;;;;;21.52;7.55;;;12.40;99.90;;;;;;4937154;28;20123;-73
2023/06/09 04:15:45;;;;;;;12.15;6.43;;;12.40;99.90;;;;;;4968364;28;20540;-74
2023/06/09 04:18:15;;;;;;;14.63;7.10;;;11.60;99.90;;;;;;4971202;28;20061;-75
2023/06/09 04:20:57;;;;;;;19.23;6.80;;;12.40;99.90;;;;;;4970464;28;20065;-74
2023/06/09 04:23:32;;;;;;;14.00;6.95;;;12.40;99.90;;;;;;4955074;28;20085;-74
2023/06/09 04:26:18;;;;;;;17.20;6.97;;;12.40;99.90;;;;;;4972537;28;20416;-73
2023/06/09 04:28:53;;;;;;;15.80;6.80;;;12.50;99.90;;;;;;4955393;28;20685;-72
2023/06/09 04:31:33;;;;;;;16.92;7.15;;;12.50;99.90;;;;;;4955699;28;20101;-74
2023/06/09 04:34:15;;;;;;;12.40;6.85;;;12.50;99.90;;;;;;4973858;28;20050;-75
2023/06/09 04:36:52;;;;;;;11.32;6.68;;;12.50;99.90;;;;;;4970436;28;20602;-73
2023/06/09 04:39:28;;;;;;;16.50;6.00;;;12.50;99.90;;;;;;4956249;28;20156;-75
2023/06/09 04:41:57;;;;;;;15.98;6.50;;;12.60;99.90;;;;;;4987229;28;20057;-75
2023/06/09 04:44:53;;;;;;;16.85;6.72;;;12.60;99.90;;;;;;4959263;28;20105;-75
2023/06/09 04:47:24;;;;;;;12.75;6.25;;;12.70;99.90;;;;;;5025775;28;20045;-75
2023/06/09 04:50:05;;;;;;;13.90;7.28;;;12.70;99.90;;;;;;5019994;28;20415;-74
2023/06/09 04:52:47;;;;;;;17.15;6.75;;;12.70;99.90;;;;;;5034341;28;20049;-76
2023/06/09 04:55:16;;;;;;;15.70;7.03;;;12.80;99.90;;;;;;5027999;28;20528;-74
2023/06/09 04:57:43;;;;;;;18.77;6.88;;;12.80;99.90;;;;;;5009208;28;20089;-74
2023/06/09 05:00:57;;;;;;;19.23;7.47;;;12.90;99.90;;;;;;5018631;28;20061;-75
2023/06/09 05:03:29;;;;;;;13.65;7.20;;;12.90;99.90;;;;;;5056172;28;20057;-74
2023/06/09 05:05:57;;;;;;;21.20;7.32;;;13.00;99.90;;;;;;5010753;28;20057;-74
2023/06/09 05:08:30;;;;;;;15.93;7.70;;;13.00;99.90;;;;;;5026859;28;20065;-73
2023/06/09 05:10:57;;;;;;;20.05;7.57;;;13.10;99.90;;;;;;5026720;28;20041;-73
2023/06/09 05:13:25;;;;;;;16.38;6.97;;;13.10;99.90;;;;;;5043925;28;20053;-74
2023/06/09 05:15:53;;;;;;;22.67;7.80;;;13.20;99.90;;;;;;5024184;28;20460;-73
2023/06/09 05:18:21;;;;;;;18.20;7.40;;;13.20;99.90;;;;;;5008402;28;20046;-74
2023/06/09 05:21:07;;;;;;;13.85;5.85;;;13.30;99.90;;;;;;5022439;28;20185;-75
2023/06/09 05:23:43;;;;;;;15.60;7.15;;;13.40;99.90;;;;;;5007146;28;20070;-74
2023/06/09 05:26:16;;;;;;;16.67;7.65;;;13.40;99.90;;;;;;5019810;28;20415;-72
2023/06/09 05:28:50;;;;;;;17.23;7.28;;;13.50;99.90;;;;;;5010858;28;20050;-75
2023/06/09 05:31:23;;;;;;;18.65;8.20;;;13.50;99.90;;;;;;5004593;28;20056;-73
2023/06/09 05:33:52;;;;;;;16.00;7.32;;;13.60;99.90;;;;;;5042634;28;20122;-74
2023/06/09 05:36:21;;;;;;;16.38;7.38;;;13.70;99.90;;;;;;5037075;28;20059;-74
2023/06/09 05:38:54;;;;;;;15.93;6.82;;;13.80;99.90;;;;;;5013877;28;20053;-73
2023/06/09 05:41:30;;;;;;;16.05;6.50;;;13.90;99.90;;;;;;5048600;28;20062;-74
2023/06/09 05:44:05;;;;;;;15.52;6.95;;;14.00;99.90;;;;;;4984501;28;20088;-74
2023/06/09 05:46:41;;;;;;;14.00;6.75;;;14.10;99.90;;;;;;5031853;28;20064;-73
2023/06/09 05:49:23;;;;;;;12.00;6.22;;;14.20;99.90;;;;;;5031532;28;20045;-74
2023/06/09 05:51:58;;;;;;;13.93;6.13;;;14.30;99.90;;;;;;5030924;28;20065;-73
2023/06/09 05:54:28;;;;;;;16.90;5.95;;;14.40;99.90;;;;;;5029921;28;20136;-74
2023/06/09 05:57:03;;;;;;;13.88;5.70;;;14.50;99.90;;;;;;5029537;28;20064;-74
2023/06/09 05:59:32;;;;;;;13.48;6.22;;;14.60;99.90;;;;;;5046444;28;20061;-72
2023/06/09 06:01:58;;;;;;;14.30;5.90;;;14.70;99.90;;;;;;5022965;28;20128;-74
2023/06/09 06:04:32;;;;;;;15.20;6.32;;;14.90;99.90;;;;;;5032138;28;20374;-73
2023/06/09 06:07:17;;;;;;;10.57;4.88;;;15.00;99.90;;;;;;5013410;28;20056;-74
2023/06/09 06:09:45;;;;;;;15.27;5.75;;;15.10;99.90;;;;;;5029481;28;20498;-74
2023/06/09 06:12:26;;;;;;;12.25;5.88;;;15.20;99.90;;;;;;5025764;28;20089;-74
2023/06/09 06:15:15;;;;;;;13.60;5.38;;;15.30;99.90;;;;;;5031179;28;20125;-75
2023/06/09 06:17:47;;;;;;;13.35;5.85;;;15.40;99.90;;;;;;5029277;28;20455;-73
2023/06/09 06:20:34;;;;;;;12.20;5.50;;;15.50;99.90;;;;;;5024707;28;20179;-74
2023/06/09 06:23:35;;;;;;;11.70;5.30;;;15.70;99.90;;;;;;5024794;28;20120;-73
2023/06/09 06:26:20;;;;;;;11.77;5.38;;;15.80;99.90;;;;;;5011164;28;20053;-75
2023/06/09 06:28:49;;;;;;;13.10;6.05;;;16.00;99.90;;;;;;5022462;28;20072;-73
2023/06/09 06:31:20;;;;;;;14.43;5.57;;;16.10;99.90;;;;;;4995548;28;20065;-74
2023/06/09 06:33:59;;;;;;;13.98;5.72;;;16.20;99.90;;;;;;5013950;28;20590;-75
2023/06/09 06:36:43;;;;;;;11.57;5.72;;;16.40;99.90;;;;;;5026179;28;20136;-74
2023/06/09 06:39:25;;;;;;;13.82;5.97;;;16.50;99.90;;;;;;5027740;28;20115;-74
2023/06/09 06:42:17;;;;;;;13.55;5.43;;;16.60;99.90;;;;;;5061398;28;20064;-75
2023/06/09 06:45:02;;;;;;;12.75;5.28;;;16.80;99.90;;;;;;5057995;28;20118;-74
2023/06/09 06:47:29;;;;;;;11.73;5.18;;;16.90;99.90;;;;;;5027555;28;20068;-74
2023/06/09 06:50:29;;;;;;;13.15;5.75;;;17.10;99.90;;;;;;5029847;28;20056;-74
2023/06/09 06:52:55;;;;;;;11.90;5.38;;;17.30;99.90;;;;;;5025177;28;20092;-74
2023/06/09 06:55:28;;;;;;;11.40;5.18;;;17.40;99.90;;;;;;5028031;28;20053;-74
2023/06/09 06:58:06;;;;;;;10.23;5.47;;;17.50;99.90;;;;;;5007816;28;20582;-73
2023/06/09 07:00:42;;;;;;;12.95;5.97;;;17.60;99.90;;;;;;5028526;28;20097;-74
2023/06/09 07:03:35;;;;;;;13.07;5.40;;;17.80;99.90;;;;;;5028463;28;20049;-74
2023/06/09 07:06:20;;;;;;;12.48;5.55;;;17.90;99.90;;;;;;4981634;28;20073;-76
2023/06/09 07:11:55;;;;;;;16.80;5.85;;;18.40;99.90;;;;;;5062523;28;19996;-75
2023/06/09 07:14:34;;;;;;;15.25;5.88;;;18.60;99.90;;;;;;5022998;28;20056;-74
2023/06/09 07:17:10;;;;;;;12.15;5.72;;;18.80;99.90;;;;;;5022533;28;20451;-75
2023/06/09 07:19:37;;;;;;;11.70;5.60;;;19.00;99.90;;;;;;5011451;28;20077;-75
2023/06/09 07:22:11;;;;;;;10.48;5.13;;;19.20;99.90;;;;;;4989997;28;20517;-74
2023/06/09 07:24:50;;;;;;;12.27;5.47;;;19.40;99.90;;;;;;4975224;28;20107;-75
2023/06/09 07:27:26;;;;;;;15.23;5.30;;;19.60;99.90;;;;;;4967007;28;20061;-74
2023/06/09 07:30:13;;;;;;;11.98;5.35;;;19.70;99.90;;;;;;5000342;28;20428;-75
2023/06/09 07:32:49;;;;;;;10.82;5.13;;;19.90;99.90;;;;;;4990803;28;20061;-74
2023/06/09 07:35:43;;;;;;;9.05;4.80;;;20.10;99.90;;;;;;5006432;28;20113;-74
2023/06/09 07:38:21;;;;;;;13.75;4.95;;;20.30;99.90;;;;;;5023458;28;20104;-74
2023/06/09 07:41:21;;;;;;;;;;;20.50;99.90;;;;;;4987800;28;20046;-74
2023/06/09 07:44:50;;;;;;;13.32;5.20;;;20.70;99.90;;;;;;4972544;28;20025;-73
2023/06/09 07:47:38;;;;;;;13.65;5.22;;;21.60;99.90;;;;;;4976395;28;20052;-74
2023/06/09 07:50:18;;;;;;;12.40;5.32;;;21.10;99.90;;;;;;4955407;28;20058;-74
2023/06/09 07:52:53;;;;;;;9.30;4.95;;;21.50;99.90;;;;;;4985845;28;20126;-75
2023/06/09 07:55:25;;;;;;;9.35;4.55;;;21.50;99.90;;;;;;4954055;28;20143;-74
2023/06/09 07:57:57;;;;;;;9.93;5.00;;;21.70;99.90;;;;;;4956029;28;20513;-74
2023/06/09 08:00:26;;;;;;;11.80;5.40;;;21.90;99.90;;;;;;4994857;28;20057;-74
2023/06/09 08:03:18;;;;;;;10.43;5.13;;;22.10;99.90;;;;;;5002902;28;20135;-74
2023/06/09 08:06:28;;;;;;;11.73;5.22;;;22.20;99.90;;;;;;5026106;28;20149;-75
2023/06/09 08:08:59;;;;;;;11.23;4.60;;;22.40;99.90;;;;;;4995269;28;20504;-74
2023/06/09 08:11:58;;;;;;;12.45;5.53;;;22.60;99.90;;;;;;5005689;28;20130;-74
2023/06/09 08:14:36;;;;;;;11.43;5.10;;;22.80;99.90;;;;;;5028218;28;20077;-75
2023/06/09 08:17:39;;;;;;;10.40;4.75;;;23.10;99.90;;;;;;5027761;28;20393;-75
2023/06/09 08:20:59;;;;;;;12.68;5.65;;;23.40;99.90;;;;;;4993252;28;20119;-74
2023/06/09 08:23:37;;;;;;;11.30;5.38;;;23.60;99.90;;;;;;5001033;28;20084;-74
2023/06/09 08:26:15;;;;;;;8.05;4.60;;;23.80;99.90;;;;;;5011359;28;20053;-74
2023/06/09 08:28:47;;;;;;;11.15;4.55;;;24.10;99.90;;;;;;5010230;28;20060;-74
2023/06/09 08:31:27;;;;;;;9.98;4.88;;;24.20;99.90;;;;;;5041589;28;20053;-74
2023/06/09 08:34:00;;;;;;;12.20;4.95;;;24.30;99.90;;;;;;5019008;28;20126;-74
2023/06/09 08:36:38;;;;;;;9.15;5.07;;;24.50;99.90;;;;;;5027577;28;20103;-75
2023/06/09 08:39:15;;;;;;;13.40;4.93;;;24.70;99.90;;;;;;4986234;28;20049;-74
2023/06/09 08:41:51;;;;;;;8.90;4.40;;;24.90;99.90;;;;;;5027796;28;20084;-74
2023/06/09 08:44:21;;;;;;;15.00;4.93;;;24.90;99.90;;;;;;5002765;28;20054;-74
2023/06/09 08:47:03;;;;;;;10.40;4.30;;;25.10;99.90;;;;;;5027810;28;20103;-74
2023/06/09 08:49:32;;;;;;;;;;;25.30;99.90;;;;;;5025095;28;20406;-74
2023/06/09 08:52:19;;;;;;;7.97;4.30;;;25.40;99.90;;;;;;5027116;28;19925;-74
2023/06/09 08:55:04;;;;;;;9.27;4.25;;;25.70;99.90;;;;;;5022852;28;20508;-75
2023/06/09 08:57:39;;;;;;;10.23;4.80;;;25.90;99.90;;;;;;5022709;28;20076;-75
2023/06/09 09:00:20;;;;;;;10.70;4.15;;;26.20;99.90;;;;;;5024142;28;20479;-74
2023/06/09 09:03:06;;;;;;;8.07;3.92;;;26.30;99.90;;;;;;5027390;28;20099;-74
2023/06/09 09:05:48;;;;;;;12.45;4.80;;;26.40;99.90;;;;;;5025741;28;20350;-74
2023/06/09 09:08:16;;;;;;;7.25;3.88;;;26.60;99.90;;;;;;5039412;28;20465;-74
2023/06/09 09:10:49;;;;;;;11.38;4.25;;;26.70;99.90;;;;;;5024667;28;20049;-73
2023/06/09 09:13:18;;;;;;;8.10;3.97;;;26.90;99.80;;;;;;5025892;28;20447;-74
2023/06/09 09:15:52;;;;;;;8.40;4.15;;;27.10;99.50;;;;;;5010177;28;20049;-74
2023/06/09 09:18:38;;;;;;;12.90;4.70;;;27.30;98.90;;;;;;5026714;28;20085;-74
2023/06/09 09:21:23;;;;;;;8.98;4.20;;;27.50;97.00;;;;;;5055686;28;20064;-74
2023/06/09 09:24:07;;;;;;;10.40;4.22;;;27.50;98.00;;;;;;5057750;28;20053;-73
2023/06/09 09:26:40;;;;;;;8.48;4.03;;;27.70;98.30;;;;;;5010071;28;20137;-73
2023/06/09 09:29:16;;;;;;;10.95;4.03;;;27.90;98.00;;;;;;5018703;28;20066;-74
2023/06/09 09:31:45;;;;;;;10.82;4.50;;;28.10;97.60;;;;;;5026410;28;20057;-73
2023/06/09 09:34:27;;;;;;;10.20;4.07;;;28.30;97.10;;;;;;5024914;28;20064;-73
2023/06/09 09:37:17;;;;;;;8.65;3.92;;;28.50;96.70;;;;;;5057536;28;20104;-74
2023/06/09 09:40:00;;;;;;;10.75;4.55;;;28.60;95.80;;;;;;5004122;28;20491;-73
2023/06/09 09:42:32;;;;;;;9.30;3.92;;;28.70;95.50;;;;;;5026064;28;20059;-73
2023/06/09 09:45:04;;;;;;;10.75;3.97;;;28.90;95.80;;;;;;5008044;28;20484;-74
2023/06/09 09:47:40;;;;;;;10.20;4.32;;;29.00;94.90;;;;;;5019010;28;20133;-74
2023/06/09 09:50:22;;;;;;;11.27;4.43;;;29.10;94.70;;;;;;5010546;28;20129;-74
2023/06/09 09:53:06;;;;;;;8.82;4.10;;;29.20;94.40;;;;;;5021636;28;20087;-74
2023/06/09 09:55:49;;;;;;;9.75;4.25;;;29.40;94.30;;;;;;5010277;28;20052;-74
2023/06/09 09:58:42;;;;;;;10.55;4.28;;;29.60;93.80;;;;;;5013563;28;20068;-74
2023/06/09 10:01:17;;;;;;;11.60;4.20;;;30.10;93.60;;;;;;5026128;28;20570;-74
2023/06/09 10:04:24;;;;;;;8.07;4.25;;;30.00;93.20;;;;;;5025651;28;20036;-76
2023/06/09 10:06:58;;;;;;;10.23;4.57;;;30.20;92.80;;;;;;4992306;28;20168;-73
2023/06/09 10:09:25;;;;;;;13.80;4.45;;;30.30;92.10;;;;;;4964574;28;20145;-68
2023/06/09 10:12:25;;;;;;;8.45;4.32;;;30.40;92.00;;;;;;4963353;28;20053;-74
2023/06/09 10:15:11;;;;;;;10.20;3.95;;;30.60;91.60;;;;;;5009058;28;20062;-74
2023/06/09 10:17:45;;;;;;;9.65;4.38;;;30.60;91.30;;;;;;4962915;28;20141;-75
2023/06/09 10:20:14;;;;;;;9.93;4.32;;;30.90;90.80;;;;;;4984211;28;20150;-74
2023/06/09 10:26:18;;;;;;;10.82;4.22;;;31.30;90.40;;;;;;4948049;28;20054;-74
2023/06/09 10:32:09;;;;;;;9.15;3.80;;;31.60;89.70;;;;;;4972924;28;20820;-75
2023/06/09 10:35:04;;;;;;;11.77;4.50;;;31.60;89.30;;;;;;4959090;28;20097;-74
2023/06/09 10:38:01;;;;;;;8.15;4.35;;;31.80;88.90;;;;;;4979835;28;20050;-75
2023/06/09 10:41:15;;;;;;;7.50;3.50;;;31.90;87.30;;;;;;5005899;28;20190;-77
2023/06/09 10:44:35;;;;;;;8.60;4.03;;;32.00;82.70;;;;;;4985311;28;20061;-74
2023/06/09 10:48:07;;;;;;;13.55;4.25;;;32.00;84.20;;;;;;5008034;28;20061;-74
2023/06/09 10:51:37;;;;;;;9.65;4.18;;;32.20;85.10;;;;;;4909709;28;20136;-75
2023/06/09 10:54:51;;;;;;;9.27;3.95;;;32.30;84.40;;;;;;5021924;28;20120;-75
2023/06/09 10:57:46;;;;;;;10.05;4.80;;;32.50;85.20;;;;;;5028484;28;20058;-75
2023/06/09 11:04:52;;;;;;;8.82;4.20;;;32.80;81.70;;;;;;5010508;28;20057;-75
2023/06/09 11:08:20;;;;;;;8.43;4.20;;;33.00;82.00;;;;;;5026768;28;20114;-73
2023/06/09 11:11:13;;;;;;;9.02;4.45;;;33.10;80.90;;;;;;5013288;28;20068;-73
2023/06/09 11:14:04;;;;;;;12.88;4.70;;;33.20;81.90;;;;;;5027269;28;20111;-73
2023/06/09 11:17:39;;;;;;;9.80;4.80;;;33.30;81.60;;;;;;5021091;28;20723;-72
2023/06/09 11:20:33;;;;;;;12.38;4.57;;;33.50;79.50;;;;;;5018598;28;20058;-75
2023/06/09 11:23:01;;;;;;;11.57;4.63;;;33.40;80.90;;;;;;4989102;28;20081;-73
2023/06/09 11:26:02;;;;;;;12.65;4.50;;;33.50;79.80;;;;;;4988616;28;20062;-73
2023/06/09 11:35:54;;;;;;;9.93;4.63;;;33.80;78.10;;;;;;5005061;28;20181;-74
2023/06/09 11:38:28;;;;;;;9.30;4.70;;;33.70;77.80;;;;;;4989292;28;20070;-74
2023/06/09 11:41:13;;;;;;;8.80;4.28;;;33.60;78.20;;;;;;4968627;28;20120;-74
2023/06/09 11:43:59;;;;;;;11.07;4.88;;;33.60;78.70;;;;;;4990674;28;20141;-74
2023/06/09 11:47:23;;;;;;;12.23;4.75;;;33.70;78.40;;;;;;5005796;28;20053;-74
2023/06/09 11:50:46;;;;;;;11.75;4.72;;;33.70;78.60;;;;;;5005649;28;20050;-74
2023/06/09 11:53:34;;;;;;;11.27;4.72;;;33.60;77.60;;;;;;4993860;28;20069;-74
2023/06/09 11:56:34;;;;;;;11.60;4.70;;;33.50;77.60;;;;;;5040270;28;20107;-74
2023/06/09 11:59:42;;;;;;;11.50;4.70;;;33.70;77.80;;;;;;4994111;28;20051;-74
2023/06/09 12:05:37;;;;;;;14.32;4.65;;;33.70;77.80;;;;;;5010554;28;20057;-74
2023/06/09 12:08:46;;;;;;;9.73;4.80;;;33.90;77.50;;;;;;4996910;28;20565;-75
2023/06/09 12:11:36;;;;;;;8.73;4.25;;;34.10;76.60;;;;;;4995949;28;20058;-74
2023/06/09 12:14:31;;;;;;;9.90;4.32;;;34.20;75.90;;;;;;4996429;28;20042;-75
2023/06/09 12:17:27;;;;;;;13.27;4.97;;;34.20;75.20;;;;;;4981014;28;20070;-74
2023/06/09 12:20:51;;;;;;;12.30;5.03;;;34.10;76.20;;;;;;4983062;28;20137;-76
2023/06/09 12:23:40;;;;;;;12.23;4.95;;;34.10;75.80;;;;;;4975201;28;20583;-75
2023/06/09 12:26:36;;;;;;;13.02;5.55;;;33.90;76.10;;;;;;4964854;28;20145;-73
2023/06/09 12:29:39;;;;;;;10.43;4.93;;;33.80;76.30;;;;;;4996612;28;20101;-74
2023/06/09 12:33:00;;;;;;;11.18;4.72;;;33.60;75.40;;;;;;4979524;28;20050;-74
2023/06/09 12:35:52;;;;;;;11.38;4.45;;;33.70;75.80;;;;;;4978486;28;20536;-74
2023/06/09 12:38:55;;;;;;;11.70;5.00;;;33.60;75.30;;;;;;4924545;29;20066;-74
2023/06/09 12:41:56;;;;;;;9.63;5.13;;;33.60;76.10;;;;;;4900997;29;20140;-74
2023/06/09 12:44:53;;;;;;;13.07;5.40;;;33.70;75.70;;;;;;4860758;29;20516;-74
2023/06/09 12:48:07;;;;;;;11.80;4.72;;;33.70;75.80;;;;;;4953121;28;20086;-74
2023/06/09 12:51:01;;;;;;;11.93;4.72;;;33.80;74.50;;;;;;4984640;28;20101;-74
2023/06/09 12:53:53;;;;;;;12.27;5.00;;;34.00;75.60;;;;;;5016666;28;20056;-73
2023/06/09 12:56:57;;;;;;;10.40;4.57;;;34.10;75.60;;;;;;4968036;28;20960;-74
2023/06/09 13:00:02;;;;;;;12.32;5.70;;;34.10;74.20;;;;;;4968817;28;20097;-74
2023/06/09 13:03:01;;;;;;;15.77;5.40;;;34.10;75.00;;;;;;4970082;28;20491;-74
2023/06/09 13:05:59;;;;;;;11.27;4.93;;;34.10;74.50;;;;;;4968977;28;20133;-75
2023/06/09 13:08:56;;;;;;;11.00;4.78;;;34.10;74.80;;;;;;4973819;28;20076;-75
2023/06/09 13:12:16;;;;;;;9.93;4.20;;;34.10;74.10;;;;;;5000279;28;20508;-74
2023/06/09 13:15:08;;;;;;;11.93;4.55;;;33.90;73.70;;;;;;4971820;28;20057;-75
2023/06/09 13:18:11;;;;;;;7.72;4.70;;;34.00;74.50;;;;;;5006130;28;20490;-76
2023/06/09 13:21:06;;;;;;;12.32;4.55;;;34.00;74.30;;;;;;4998719;28;20578;-76
2023/06/09 13:24:25;;;;;;;10.73;4.90;;;34.00;74.30;;;;;;5000406;28;20125;-75
2023/06/09 13:27:01;;;;;;;8.65;4.18;;;34.10;74.00;;;;;;4997136;28;20631;-75
2023/06/09 13:29:43;;;;;;;8.90;4.63;;;34.10;73.80;;;;;;4999643;28;20141;-74
2023/06/09 13:32:43;;;;;;;10.98;4.28;;;34.20;73.90;;;;;;4976129;28;20069;-74
2023/06/09 13:35:41;;;;;;;11.80;4.80;;;34.30;73.20;;;;;;4975365;28;20101;-74
2023/06/09 13:38:22;;;;;;;10.82;4.10;;;34.40;73.20;;;;;;4964274;28;20112;-73
2023/06/09 13:41:49;;;;;;;10.43;4.57;;;34.50;72.20;;;;;;4942620;28;20110;-75
2023/06/09 13:44:51;;;;;;;10.23;4.63;;;34.50;72.60;;;;;;4975140;28;20058;-74
2023/06/09 13:48:07;;;;;;;11.43;4.72;;;34.50;71.70;;;;;;4892469;29;20048;-74
2023/06/09 13:54:22;;;;;;;12.48;4.38;;;34.20;72.40;;;;;;4963788;28;20050;-74
2023/06/09 13:57:14;;;;;;;12.80;4.60;;;34.20;72.60;;;;;;4965349;28;20062;-74
2023/06/09 14:00:16;;;;;;;10.45;4.40;;;34.30;72.40;;;;;;5000189;28;20527;-75
2023/06/09 14:03:06;;;;;;;10.38;4.10;;;34.40;72.20;;;;;;5016110;28;20073;-74
2023/06/09 14:06:07;;;;;;;12.30;4.25;;;34.30;71.50;;;;;;5031509;28;20056;-74
2023/06/09 14:09:00;;;;;;;12.65;4.93;;;34.20;71.60;;;;;;4994592;28;20479;-74
2023/06/09 14:12:16;;;;;;;8.25;4.07;;;34.00;71.50;;;;;;5027825;28;20558;-74
2023/06/09 14:15:12;;;;;;;11.45;4.50;;;33.90;71.10;;;;;;4956209;28;20050;-74
2023/06/09 14:18:40;;;;;;;9.52;4.15;;;33.70;71.60;;;;;;4955835;28;20109;-74
2023/06/09 14:21:42;;;;;;;8.23;4.03;;;33.60;70.40;;;;;;5029608;28;20508;-74
2023/06/09 14:24:46;;;;;;;14.27;4.45;;;33.60;71.80;;;;;;5029774;28;20088;-75
2023/06/09 14:30:30;;;;;;;8.95;4.13;;;33.50;71.50;;;;;;5011858;28;20435;-74